createdAt,value
2019-03-20T00:01:07.843Z,38.17
2019-03-20T00:03:38.144Z,40.20
2019-03-20T00:06:08.557Z,43.87
2019-03-20T00:08:39.002Z,43.17
2019-03-20T00:11:09.413Z,47.57
2019-03-20T00:13:39.863Z,49.43
2019-03-20T00:16:10.257Z,46.50
2019-03-20T00:18:40.697Z,41.70
2019-03-20T00:21:11.178Z,38.63
2019-03-20T00:23:41.595Z,36.37
2019-03-20T00:26:12.013Z,34.97
2019-03-20T00:28:42.409Z,34.97
2019-03-20T00:31:14.914Z,34.40
2019-03-20T00:33:45.421Z,34.87
2019-03-20T00:36:15.977Z,33.07
2019-03-20T00:38:46.375Z,34.40
2019-03-20T00:41:16.854Z,33.57
2019-03-20T00:43:47.262Z,32.40
2019-03-20T00:46:17.656Z,33.13
2019-03-20T00:48:49.085Z,37.90
2019-03-20T00:51:19.515Z,42.43
2019-03-20T00:53:50.064Z,49.50
2019-03-20T00:56:20.483Z,48.37
2019-03-20T00:58:50.954Z,43.87
2019-03-20T01:01:21.384Z,40.40
2019-03-20T01:03:51.945Z,37.17
2019-03-20T01:06:22.370Z,35.40
2019-03-20T01:08:52.815Z,34.20
2019-03-20T01:11:23.215Z,32.83
2019-03-20T01:13:53.662Z,31.13
2019-03-20T01:16:24.443Z,31.83
2019-03-20T01:18:55.897Z,32.80
2019-03-20T01:21:26.278Z,31.70
2019-03-20T01:23:56.685Z,34.33
2019-03-20T01:26:27.108Z,36.33
2019-03-20T01:28:57.535Z,35.10
2019-03-20T01:31:27.926Z,35.87
2019-03-20T01:33:58.323Z,38.63
2019-03-20T01:36:28.780Z,38.90
2019-03-20T01:38:59.211Z,37.43
2019-03-20T01:41:37.555Z,38.03
2019-03-20T01:44:01.773Z,37.53
2019-03-20T01:46:32.228Z,36.67
2019-03-20T01:49:02.723Z,38.37
2019-03-20T01:51:33.230Z,36.43
2019-03-20T01:54:03.621Z,37.37
2019-03-20T01:56:34.096Z,37.77
2019-03-20T01:59:04.519Z,37.40
2019-03-20T02:01:35.064Z,34.87
2019-03-20T02:04:05.479Z,37.03
2019-03-20T02:06:36.056Z,35.53
2019-03-20T02:09:08.060Z,36.90
2019-03-20T02:11:38.530Z,37.83
2019-03-20T02:14:09.029Z,36.00
2019-03-20T02:16:39.579Z,36.13
2019-03-20T02:19:10.181Z,37.20
2019-03-20T02:21:40.612Z,42.57
2019-03-20T02:24:11.077Z,54.00
2019-03-20T02:26:41.568Z,58.33
2019-03-20T02:29:11.992Z,61.80
2019-03-20T02:31:42.439Z,58.27
2019-03-20T02:34:12.951Z,55.07
2019-03-20T02:36:43.415Z,51.53
2019-03-20T02:39:13.856Z,52.10
2019-03-20T02:41:44.275Z,49.20
2019-03-20T02:44:14.690Z,46.67
2019-03-20T02:46:45.112Z,46.83
2019-03-20T02:49:15.560Z,43.43
2019-03-20T02:51:45.975Z,42.37
2019-03-20T02:54:16.425Z,40.83
2019-03-20T02:56:46.836Z,40.87
2019-03-20T02:59:17.308Z,40.80
2019-03-20T03:01:47.774Z,39.60
2019-03-20T03:04:18.248Z,41.77
2019-03-20T03:06:48.680Z,39.93
2019-03-20T03:09:19.116Z,41.60
2019-03-20T03:11:49.618Z,43.43
2019-03-20T03:14:20.070Z,41.97
2019-03-20T03:16:50.465Z,43.50
2019-03-20T03:19:37.923Z,39.63
2019-03-20T03:22:09.890Z,39.37
2019-03-20T03:24:40.280Z,40.07
2019-03-20T03:27:10.750Z,40.93
2019-03-20T03:29:41.202Z,39.07
2019-03-20T03:32:11.612Z,38.33
2019-03-20T03:34:42.027Z,38.43
2019-03-20T03:37:12.427Z,38.23
2019-03-20T03:39:42.855Z,36.77
2019-03-20T03:42:13.275Z,37.60
2019-03-20T03:44:43.712Z,36.77
2019-03-20T03:47:14.236Z,36.73
2019-03-20T03:49:44.715Z,36.17
2019-03-20T03:52:15.129Z,37.00
2019-03-20T03:54:45.551Z,36.93
2019-03-20T03:57:15.925Z,37.03
2019-03-20T03:59:46.394Z,34.33
2019-03-20T04:02:16.800Z,35.83
2019-03-20T04:04:47.245Z,35.37
2019-03-20T04:07:17.691Z,33.83
2019-03-20T04:09:48.188Z,35.27
2019-03-20T04:12:35.492Z,33.87
2019-03-20T04:15:12.817Z,34.53
2019-03-20T04:17:44.669Z,35.20
2019-03-20T04:20:22.472Z,34.60
2019-03-20T04:22:54.220Z,35.87
2019-03-20T04:25:24.744Z,35.77
2019-03-20T04:27:59.673Z,38.90
2019-03-20T04:30:30.078Z,41.87
2019-03-20T04:33:00.538Z,43.87
2019-03-20T04:35:31.096Z,43.87
2019-03-20T04:38:01.996Z,39.87
2019-03-20T04:40:32.511Z,41.47
2019-03-20T04:43:03.028Z,39.37
2019-03-20T04:45:33.616Z,42.60
2019-03-20T04:48:04.100Z,42.07
2019-03-20T04:50:34.554Z,42.63
2019-03-20T04:53:05.010Z,43.20
2019-03-20T04:55:35.405Z,41.83
2019-03-20T04:58:05.838Z,43.17
2019-03-20T05:00:36.440Z,40.83
2019-03-20T05:03:06.872Z,39.23
2019-03-20T05:05:37.303Z,38.27
2019-03-20T05:08:07.821Z,35.77
2019-03-20T05:10:38.590Z,41.43
2019-03-20T05:13:09.108Z,36.23
2019-03-20T05:15:39.590Z,38.37
2019-03-20T05:18:10.245Z,35.83
2019-03-20T05:20:40.760Z,36.17
2019-03-20T05:23:12.757Z,37.57
2019-03-20T05:25:43.179Z,37.87
2019-03-20T05:28:13.582Z,37.37
2019-03-20T05:30:44.085Z,38.67
2019-03-20T05:33:14.719Z,38.57
2019-03-20T05:35:46.652Z,38.37
2019-03-20T05:38:17.137Z,38.03
2019-03-20T05:40:47.587Z,39.37
2019-03-20T05:43:18.371Z,42.93
2019-03-20T05:45:48.885Z,50.00
2019-03-20T05:48:19.333Z,60.43
2019-03-20T05:50:51.393Z,53.47
2019-03-20T05:53:23.312Z,46.53
2019-03-20T05:55:55.309Z,47.47
2019-03-20T05:58:25.761Z,53.30
2019-03-20T06:00:56.705Z,53.50
2019-03-20T06:03:27.369Z,51.13
2019-03-20T06:05:57.810Z,50.17
2019-03-20T06:08:28.359Z,42.27
2019-03-20T06:11:04.949Z,42.50
2019-03-20T06:13:35.473Z,36.67
2019-03-20T06:16:05.939Z,39.17
2019-03-20T06:18:36.583Z,42.50
2019-03-20T06:21:07.148Z,48.47
2019-03-20T06:23:38.019Z,58.80
2019-03-20T06:26:08.858Z,60.10
2019-03-20T06:28:40.871Z,54.87
2019-03-20T06:31:11.672Z,47.80
2019-03-20T06:33:43.722Z,43.90
2019-03-20T06:36:14.246Z,39.83
2019-03-20T06:38:44.892Z,37.90
2019-03-20T06:41:15.333Z,36.57
2019-03-20T06:43:45.737Z,36.50
2019-03-20T06:46:16.145Z,36.20
2019-03-20T06:48:46.601Z,35.57
2019-03-20T06:51:17.144Z,33.87
2019-03-20T06:53:47.555Z,33.63
2019-03-20T06:56:17.982Z,34.07
2019-03-20T06:58:49.944Z,35.50
2019-03-20T07:01:23.588Z,33.67
2019-03-20T07:04:00.080Z,33.13
2019-03-20T07:06:39.489Z,33.80
2019-03-20T07:09:21.627Z,33.90
2019-03-20T07:11:52.072Z,32.07
2019-03-20T07:14:23.480Z,31.53
2019-03-20T07:16:53.945Z,30.57
2019-03-20T07:19:24.438Z,30.53
2019-03-20T07:21:54.854Z,29.80
2019-03-20T07:24:25.296Z,29.27
2019-03-20T07:26:55.810Z,32.60
2019-03-20T07:29:26.225Z,31.37
2019-03-20T07:31:59.731Z,31.23
2019-03-20T07:34:30.257Z,31.13
2019-03-20T07:37:00.744Z,31.80
2019-03-20T07:39:31.340Z,30.40
2019-03-20T07:42:01.746Z,31.03
2019-03-20T07:44:32.253Z,30.80
2019-03-20T07:47:02.711Z,33.27
2019-03-20T07:49:33.221Z,30.93
2019-03-20T07:52:03.741Z,32.70
2019-03-20T07:54:34.206Z,33.17
2019-03-20T07:57:04.616Z,34.60
2019-03-20T07:59:35.071Z,34.80
2019-03-20T08:02:05.478Z,92.93
2019-03-20T08:04:35.943Z,40.33
2019-03-20T08:07:06.348Z,35.70
2019-03-20T08:09:36.909Z,35.10
2019-03-20T08:12:07.397Z,38.97
2019-03-20T08:14:37.879Z,38.67
2019-03-20T08:17:09.805Z,38.37
2019-03-20T08:19:41.808Z,42.70
2019-03-20T08:22:13.823Z,38.90
2019-03-20T08:24:44.228Z,39.63
2019-03-20T08:27:14.705Z,41.60
2019-03-20T08:29:45.192Z,42.07
2019-03-20T08:32:15.725Z,41.00
2019-03-20T08:34:46.137Z,41.57
2019-03-20T08:37:16.564Z,41.80
2019-03-20T08:39:47.090Z,44.97
2019-03-20T08:42:17.958Z,43.93
2019-03-20T08:44:48.442Z,47.40
2019-03-20T08:47:18.947Z,40.93
2019-03-20T08:49:49.491Z,40.97
2019-03-20T08:52:19.930Z,40.43
2019-03-20T08:54:50.425Z,40.73
2019-03-20T08:57:20.834Z,38.50
2019-03-20T08:59:51.270Z,37.97
2019-03-20T09:02:22.153Z,40.10
2019-03-20T09:04:52.541Z,41.93
2019-03-20T09:07:22.949Z,38.17
2019-03-20T09:09:53.398Z,37.47
2019-03-20T09:12:23.804Z,35.20
2019-03-20T09:14:54.270Z,36.70
2019-03-20T09:17:24.699Z,33.60
2019-03-20T09:19:55.488Z,34.30
2019-03-20T09:22:25.991Z,33.07
2019-03-20T09:24:56.385Z,62.57
2019-03-20T09:27:26.790Z,35.10
2019-03-20T09:29:57.227Z,32.90
2019-03-20T09:32:27.667Z,32.00
2019-03-20T09:34:58.137Z,32.73
2019-03-20T09:37:28.551Z,31.57
2019-03-20T09:39:58.922Z,30.97
2019-03-20T09:42:29.343Z,31.30
2019-03-20T09:44:59.779Z,31.23
2019-03-20T09:47:30.243Z,31.13
2019-03-20T09:50:01.228Z,29.57
2019-03-20T09:52:31.620Z,29.90
2019-03-20T09:55:02.008Z,28.57
2019-03-20T09:57:32.491Z,31.47
2019-03-20T10:00:02.897Z,30.27
2019-03-20T10:02:33.378Z,31.47
2019-03-20T10:05:04.920Z,30.30
2019-03-20T10:07:35.315Z,28.37
2019-03-20T10:10:08.930Z,26.57
2019-03-20T10:12:39.377Z,23.47
2019-03-20T10:15:12.670Z,27.10
2019-03-20T10:17:43.090Z,34.93
2019-03-20T10:20:18.080Z,36.57
2019-03-20T10:22:48.504Z,42.10
2019-03-20T10:25:18.951Z,37.50
2019-03-20T10:27:51.717Z,36.07
2019-03-20T10:30:23.860Z,33.97
2019-03-20T10:32:54.259Z,36.30
2019-03-20T10:35:24.661Z,34.30
2019-03-20T10:37:55.092Z,36.97
2019-03-20T10:40:27.704Z,34.93
2019-03-20T10:43:00.330Z,35.40
2019-03-20T10:45:33.034Z,36.57
2019-03-20T10:48:04.971Z,39.57
2019-03-20T10:50:35.404Z,34.37
2019-03-20T10:53:05.852Z,34.10
2019-03-20T10:55:36.286Z,32.77
2019-03-20T10:58:06.727Z,33.47
2019-03-20T11:00:37.319Z,33.70
2019-03-20T11:03:07.735Z,32.60
2019-03-20T11:05:38.358Z,34.23
2019-03-20T11:08:10.090Z,35.83
2019-03-20T11:10:40.521Z,36.07
2019-03-20T11:13:11.150Z,35.17
2019-03-20T11:15:41.594Z,36.17
2019-03-20T11:18:12.025Z,34.23
2019-03-20T11:20:42.466Z,31.93
2019-03-20T11:23:14.470Z,31.70
2019-03-20T11:25:44.845Z,30.43
2019-03-20T11:28:15.248Z,31.73
2019-03-20T11:30:45.681Z,33.50
2019-03-20T11:33:16.157Z,33.50
2019-03-20T11:35:47.118Z,34.10
2019-03-20T11:38:17.552Z,34.20
2019-03-20T11:40:47.980Z,30.60
2019-03-20T11:43:18.453Z,27.63
2019-03-20T11:45:48.849Z,27.53
2019-03-20T11:48:19.279Z,26.20
2019-03-20T11:50:49.767Z,26.27
2019-03-20T11:53:20.298Z,27.20
2019-03-20T11:55:50.772Z,29.17
2019-03-20T11:58:21.262Z,27.33
2019-03-20T12:00:51.681Z,25.97
2019-03-20T12:03:22.291Z,24.27
2019-03-20T12:05:52.840Z,23.70
2019-03-20T12:08:23.352Z,24.47
2019-03-20T12:10:53.781Z,25.07
2019-03-20T12:13:24.300Z,23.43
2019-03-20T12:15:55.278Z,21.53
2019-03-20T12:18:27.022Z,21.73
2019-03-20T12:20:58.485Z,22.70
2019-03-20T12:23:28.990Z,24.77
2019-03-20T12:25:59.449Z,23.63
2019-03-20T12:28:32.378Z,22.97
2019-03-20T12:31:02.804Z,23.70
2019-03-20T12:33:34.316Z,24.47
2019-03-20T12:36:04.740Z,24.83
2019-03-20T12:38:35.316Z,25.17
2019-03-20T12:41:05.750Z,25.20
2019-03-20T12:43:36.184Z,24.57
2019-03-20T12:46:09.572Z,24.90
2019-03-20T12:48:39.957Z,25.47
2019-03-20T12:51:10.488Z,26.30
2019-03-20T12:53:40.909Z,26.23
2019-03-20T12:56:11.387Z,26.97
2019-03-20T12:58:41.829Z,26.13
2019-03-20T13:01:12.673Z,27.10
2019-03-20T13:04:01.281Z,30.33
2019-03-20T13:06:36.074Z,30.47
2019-03-20T13:09:07.782Z,29.23
2019-03-20T13:11:38.229Z,30.63
2019-03-20T13:14:11.609Z,32.50
2019-03-20T13:16:43.539Z,32.53
2019-03-20T13:19:15.491Z,32.03
2019-03-20T13:21:47.609Z,32.33
2019-03-20T13:24:18.079Z,31.17
2019-03-20T13:26:48.544Z,32.00
2019-03-20T13:29:20.053Z,31.60
2019-03-20T13:31:50.441Z,31.10
2019-03-20T13:34:22.508Z,31.87
2019-03-20T13:36:52.977Z,30.83
2019-03-20T13:39:23.435Z,30.27
2019-03-20T13:41:53.886Z,30.10
2019-03-20T13:44:24.295Z,29.93
2019-03-20T13:46:56.560Z,31.00
2019-03-20T13:49:27.912Z,30.17
2019-03-20T13:52:10.742Z,29.33
2019-03-20T13:54:33.714Z,29.80
2019-03-20T13:57:04.129Z,31.80
2019-03-20T13:59:34.653Z,29.63
2019-03-20T14:02:05.028Z,32.67
2019-03-20T14:04:35.469Z,31.30
2019-03-20T14:07:06.624Z,32.63
2019-03-20T14:09:37.076Z,32.93
2019-03-20T14:12:07.506Z,32.50
2019-03-20T14:14:38.015Z,30.93
2019-03-20T14:17:08.434Z,30.37
2019-03-20T14:19:38.932Z,32.00
2019-03-20T14:22:10.701Z,32.03
2019-03-20T14:24:41.120Z,31.07
2019-03-20T14:27:11.584Z,27.83
2019-03-20T14:29:42.010Z,30.10
2019-03-20T14:32:15.425Z,29.70
2019-03-20T14:34:46.000Z,28.13
2019-03-20T14:37:16.435Z,29.63
2019-03-20T14:39:46.979Z,28.40
2019-03-20T14:42:18.000Z,31.90
2019-03-20T14:44:51.787Z,33.17
2019-03-20T14:47:23.982Z,30.83
2019-03-20T14:49:55.330Z,29.53
2019-03-20T14:52:25.741Z,27.87
2019-03-20T14:54:57.707Z,28.63
2019-03-20T14:57:28.165Z,29.53
2019-03-20T15:00:03.066Z,29.50
2019-03-20T15:02:35.044Z,28.83
2019-03-20T15:05:12.339Z,28.40
2019-03-20T15:07:42.862Z,28.87
2019-03-20T15:10:24.252Z,27.97
2019-03-20T15:12:55.258Z,30.87
2019-03-20T15:15:44.015Z,28.73
2019-03-20T15:18:14.610Z,26.67
2019-03-20T15:20:45.113Z,29.23
2019-03-20T15:23:17.316Z,28.70
2019-03-20T15:25:47.853Z,32.57
2019-03-20T15:28:18.425Z,39.67
2019-03-20T15:30:49.408Z,37.17
2019-03-20T15:33:21.436Z,38.37
2019-03-20T15:35:54.115Z,37.73
2019-03-20T15:38:27.662Z,35.83
2019-03-20T15:41:01.412Z,35.70
2019-03-20T15:43:31.867Z,34.63
2019-03-20T15:46:05.454Z,36.17
2019-03-20T15:48:35.898Z,35.37
2019-03-20T15:51:07.762Z,37.40
2019-03-20T15:53:41.259Z,38.10
2019-03-20T15:56:13.254Z,40.53
2019-03-20T15:58:44.917Z,39.03
2019-03-20T16:01:20.800Z,41.90
2019-03-20T16:03:53.995Z,42.20
2019-03-20T16:06:27.474Z,39.47
2019-03-20T16:09:02.239Z,40.70
2019-03-20T16:11:35.359Z,43.73
2019-03-20T16:14:07.944Z,42.13
2019-03-20T16:16:39.581Z,43.50
2019-03-20T16:19:14.394Z,37.80
2019-03-20T16:21:46.562Z,38.10
2019-03-20T16:24:20.604Z,37.77
2019-03-20T16:26:51.142Z,40.80
2019-03-20T16:29:27.430Z,40.80
2019-03-20T16:31:59.638Z,45.70
2019-03-20T16:34:32.167Z,52.23
2019-03-20T16:37:02.886Z,47.10
2019-03-20T16:39:33.414Z,49.00
2019-03-20T16:42:09.428Z,48.60
2019-03-20T16:44:59.017Z,39.30
2019-03-20T16:47:30.785Z,40.93
2019-03-20T16:50:01.387Z,34.33
2019-03-20T16:52:40.421Z,34.90
2019-03-20T16:55:13.218Z,33.30
2019-03-20T16:57:43.677Z,35.40
2019-03-20T17:00:18.805Z,33.70
2019-03-20T17:02:54.993Z,33.40
2019-03-20T17:05:34.857Z,34.70
2019-03-20T17:08:06.129Z,37.43
2019-03-20T17:13:35.763Z,32.60
2019-03-20T17:16:06.247Z,35.47
2019-03-20T17:18:40.084Z,38.13
2019-03-20T17:21:10.647Z,32.67
2019-03-20T17:26:42.780Z,30.87
2019-03-20T17:29:15.870Z,31.30
2019-03-20T17:31:48.197Z,30.30
2019-03-20T17:34:21.294Z,29.33
2019-03-20T17:36:51.810Z,28.80
2019-03-20T17:39:25.378Z,30.70
2019-03-20T17:41:57.435Z,29.03
2019-03-20T17:47:19.310Z,27.23
2019-03-20T17:49:49.906Z,29.00
2019-03-20T17:52:21.495Z,30.63
2019-03-20T17:54:52.269Z,30.70
2019-03-20T17:57:24.334Z,29.30
2019-03-20T17:59:55.341Z,29.13
2019-03-20T18:02:28.858Z,31.63
2019-03-20T18:04:59.417Z,31.90
2019-03-20T18:07:31.422Z,32.80
2019-03-20T18:10:07.497Z,30.50
2019-03-20T18:12:56.836Z,31.07
2019-03-20T18:15:38.644Z,31.60
2019-03-20T18:18:12.265Z,30.43
2019-03-20T18:20:45.628Z,31.00
2019-03-20T18:23:25.996Z,31.47
2019-03-20T18:25:58.245Z,30.47
2019-03-20T18:31:21.655Z,25.83
2019-03-20T18:33:52.134Z,26.10
2019-03-20T18:36:27.973Z,24.00
2019-03-20T18:39:01.515Z,24.90
2019-03-20T18:41:32.068Z,25.53
2019-03-20T18:49:36.047Z,26.70
2019-03-20T18:52:11.939Z,26.63
2019-03-20T18:54:42.663Z,26.83
2019-03-20T18:57:27.687Z,26.63
2019-03-20T19:00:13.219Z,23.67
2019-03-20T19:02:46.316Z,27.00
2019-03-20T19:05:22.917Z,26.77
2019-03-20T19:07:57.579Z,26.13
2019-03-20T19:10:34.975Z,26.03
2019-03-20T19:13:05.697Z,25.87
2019-03-20T19:15:40.253Z,24.97
2019-03-20T19:18:14.595Z,26.67
2019-03-20T19:20:48.599Z,25.73
2019-03-20T19:23:31.186Z,24.23
2019-03-20T19:26:05.036Z,22.07
2019-03-20T19:28:36.820Z,22.47
2019-03-20T19:31:07.335Z,20.23
2019-03-20T19:33:38.901Z,17.03
2019-03-20T19:36:14.797Z,18.43
2019-03-20T19:38:47.232Z,15.77
2019-03-20T19:41:19.367Z,16.33
2019-03-20T19:44:04.918Z,16.53
2019-03-20T19:46:33.593Z,17.10
2019-03-20T19:49:07.272Z,16.47
2019-03-20T19:54:41.135Z,16.53
2019-03-20T19:57:15.481Z,16.77
2019-03-20T20:03:24.090Z,15.50
2019-03-20T20:05:58.055Z,15.27
2019-03-20T20:08:31.721Z,16.13
2019-03-20T20:11:06.996Z,16.93
2019-03-20T20:13:40.840Z,17.83
2019-03-20T20:16:11.384Z,17.17
2019-03-20T20:18:42.006Z,15.13
2019-03-20T20:21:16.489Z,14.03
2019-03-20T20:23:55.558Z,14.33
2019-03-20T20:26:36.250Z,14.43
2019-03-20T20:29:13.242Z,15.20
2019-03-20T20:31:47.342Z,13.67
2019-03-20T20:34:19.694Z,13.73
2019-03-20T20:36:50.296Z,11.93
2019-03-20T20:39:22.116Z,13.60
2019-03-20T20:41:55.421Z,11.97
2019-03-20T20:44:28.138Z,12.43
2019-03-20T20:46:58.666Z,12.43
2019-03-20T20:49:32.539Z,12.97
2019-03-20T20:52:05.516Z,13.20
2019-03-20T20:54:40.386Z,12.40
2019-03-20T20:57:16.956Z,13.37
2019-03-20T20:59:47.438Z,13.53
2019-03-20T21:02:17.918Z,12.80
2019-03-20T21:04:49.404Z,12.57
2019-03-20T21:07:19.825Z,11.93
2019-03-20T21:09:50.296Z,11.67
2019-03-20T21:12:20.804Z,12.33
2019-03-20T21:14:51.344Z,11.37
2019-03-20T21:17:24.939Z,11.60
2019-03-20T21:20:00.106Z,12.07
2019-03-20T21:22:33.587Z,11.40
2019-03-20T21:25:04.414Z,12.23
2019-03-20T21:28:11.763Z,11.67
2019-03-20T21:30:57.295Z,12.13
2019-03-20T21:33:47.198Z,11.57
2019-03-20T21:39:43.971Z,11.40
2019-03-20T21:42:41.493Z,13.33
2019-03-20T21:45:26.830Z,12.17
2019-03-20T21:47:57.343Z,12.77
2019-03-20T21:50:39.692Z,14.70
2019-03-20T21:53:13.236Z,14.07
2019-03-20T21:56:18.448Z,13.67
2019-03-20T21:59:08.460Z,13.97
2019-03-20T22:01:59.982Z,14.77
2019-03-20T22:04:30.473Z,14.83
2019-03-20T22:07:10.261Z,14.90
2019-03-20T22:09:52.336Z,15.37
2019-03-20T22:12:34.740Z,15.60
2019-03-20T22:15:08.355Z,15.43
2019-03-20T22:17:59.546Z,17.27
2019-03-20T22:20:39.062Z,15.13
2019-03-20T22:23:34.642Z,15.30
2019-03-20T22:26:17.047Z,14.30
2019-03-20T22:28:59.309Z,14.30
2019-03-20T22:31:31.858Z,13.23
2019-03-20T22:34:24.649Z,15.00
2019-03-20T22:36:55.115Z,13.70
2019-03-20T22:39:43.748Z,14.07
2019-03-20T22:42:20.241Z,12.63
2019-03-20T22:45:13.431Z,13.53
2019-03-20T22:48:03.528Z,12.23
2019-03-20T22:50:37.116Z,12.30
2019-03-20T22:53:27.002Z,12.33
2019-03-20T22:56:18.332Z,11.70
2019-03-20T22:58:48.762Z,11.67
2019-03-20T23:01:25.204Z,11.73
2019-03-20T23:04:04.414Z,11.73
2019-03-20T23:06:36.467Z,10.77
2019-03-20T23:09:08.341Z,11.77
2019-03-20T23:11:38.813Z,11.57
2019-03-20T23:14:09.428Z,11.50
2019-03-20T23:16:39.886Z,12.17
2019-03-20T23:19:10.361Z,12.17
2019-03-20T23:21:40.803Z,11.20
2019-03-20T23:24:20.406Z,11.33
2019-03-20T23:26:48.348Z,11.60
2019-03-20T23:29:18.807Z,11.47
2019-03-20T23:31:50.820Z,11.60
2019-03-20T23:34:21.263Z,12.53
2019-03-20T23:36:51.738Z,11.10
2019-03-20T23:39:22.222Z,11.43
2019-03-20T23:41:52.640Z,11.87
2019-03-20T23:44:25.049Z,12.07
2019-03-20T23:46:55.614Z,12.53
2019-03-20T23:49:28.170Z,13.00
2019-03-20T23:52:00.285Z,12.63
2019-03-20T23:54:38.191Z,11.80
2019-03-20T23:57:12.238Z,11.83
2019-03-20T23:59:42.628Z,12.07
